Flight Track Log - Related Links

Times and Time Zones

All times are in EDT time to prevent confusion due to time zone crossing. See the N4118B flight status page for this flight to view local times or setup timezone preferences in your user account.

Time Position Orientation Groundspeed Altitude Reporting Facility
EDT Latitude Longitude Course Direction KTS MPH feet Rate Location/Type
Sun 07:13:04 AM 26.1578 -80.3450 192° South 84 97 9,700  Level Miami Center
Sun 07:14:17 AM 26.1328 -80.3511 192° South 119 137 9,700  Level Miami Center
Sun 07:15:11 AM 26.1336 -80.3142 89° East 152 175 9,700  Level Miami Center
Sun 07:16:12 AM 26.1606 -80.3150 358° North 85 98 9,700  Level Miami Center
Sun 07:17:13 AM 26.1622 -80.3403 274° West 80 92 9,700 -47 Level Miami Center
Sun 07:18:19 AM 26.1369 -80.3511 201° Southwest 113 130 9,600  Descending Miami Center
Sun 07:19:20 AM 26.1231 -80.3183 115° Southeast 148 170 9,700  Climbing Miami Center
Sun 07:20:15 AM 26.1544 -80.3078 17° North 104 120 9,600 -49 Descending Miami Center
Sun 07:21:22 AM 26.1519 -80.3356 264° West 84 97 9,600  Level Miami Center
Sun 07:22:16 AM 26.1306 -80.3511 213° Southwest 96 110 9,600  Level Miami Center
Sun 07:23:35 AM 26.1253 -80.3117 98° East 146 168 9,600  Level Miami Center
Sun 07:24:18 AM 26.1461 -80.3097 North 101 116 9,600  Level Miami Center
Sun 07:25:25 AM 26.1517 -80.3378 282° West 79 91 9,600  Level Miami Center
Sun 07:26:25 AM 26.1306 -80.3533 213° Southwest 93 107 9,600  Level Miami Center
Sun 07:27:26 AM 26.1144 -80.3275 125° Southeast 155 178 9,600  Level Miami Center
Sun 07:28:27 AM 26.1417 -80.3189 16° North 100 115 9,600  Level Miami Center
Sun 07:29:34 AM 26.1369 -80.3444 258° West 84 97 9,600  Level Miami Center
Sun 07:30:34 AM 26.1139 -80.3461 184° South 119 137 9,600 -50 Level Miami Center
Sun 07:31:35 AM 26.1231 -80.3114 74° East 130 150 9,500 -47 Descending Miami Center
Sun 07:32:42 AM 26.1478 -80.3308 325° Northwest 90 104 9,500 49 Level Miami Center
Sun 07:33:37 AM 26.1347 -80.3467 227° Southwest 85 98 9,600 55 Climbing Miami Center
Sun 07:34:32 AM 26.1139 -80.3483 184° South 100 115 9,600 -49 Level Miami Center
Sun 07:35:39 AM 26.1314 -80.3211 54° Northeast 108 124 9,500  Descending Miami Center
Sun 07:36:33 AM 26.1433 -80.3397 306° West 74 85 9,600 50 Climbing Miami Center
Sun 07:37:40 AM 26.1181 -80.3506 201° Southwest 103 119 9,600  Level Miami Center
Sun 07:38:41 AM 26.1167 -80.3206 93° East 148 170 9,600  Level Miami Center
Sun 07:39:42 AM 26.1436 -80.3306 342° North 92 106 9,600  Level Miami Center
Sun 07:40:42 AM 26.1347 -80.3511 244° Southwest 78 90 9,600  Level Miami Center
Sun 07:41:43 AM 26.1219 -80.3669 228° Southwest 87 100 9,600  Level Miami Center
Sun 07:42:50 AM 26.1203 -80.3392 94° East 149 171 9,600  Level Miami Center
Sun 07:43:45 AM 26.1306 -80.3533 309° West 70 81 9,600  Level Miami Center
Sun 07:44:46 AM 26.1197 -80.3717 237° Southwest 101 116 9,600  Level Miami Center
Sun 07:45:41 AM 26.1264 -80.3486 72° East 129 148 9,600  Level Miami Center
Sun 07:46:41 AM 26.1322 -80.3719 286° West 75 86 9,600  Level Miami Center
Sun 07:47:48 AM 26.1200 -80.3578 134° Southeast 152 175 9,600  Level Miami Center
Sun 07:48:49 AM 26.1322 -80.3742 310° West 70 81 9,600  Level Miami Center
Sun 07:49:50 AM 26.1153 -80.3761 186° South 130 150 9,600  Level Miami Center
Sun 07:50:51 AM 26.1322 -80.3742 North 73 84 9,600  Level Miami Center
Sun 07:51:51 AM 26.1233 -80.3903 238° Southwest 90 104 9,600 -55 Level Miami Center
Sun 07:52:40 AM 26.1303 -80.3672 71° East 136 157 9,500  Descending Miami Center
Sun 07:53:35 AM 26.1358 -80.3883 286° West 69 79 9,600 50 Climbing Miami Center
Sun 07:54:41 AM 26.1214 -80.3831 162° South 142 163 9,600  Level Miami Center
Sun 07:55:42 AM 26.1381 -80.3861 351° North 70 81 9,600 49 Level Miami Center
Sun 07:56:43 AM 26.1253 -80.3994 223° Southwest 96 110 9,700  Climbing Miami Center
Sun 07:57:50 AM 26.1383 -80.3767 57° Northeast 117 135 9,600  Descending Miami Center
Sun 07:58:50 AM 26.1397 -80.4022 273° West 84 97 9,700 50 Climbing Miami Center
Sun 07:59:51 AM 26.1208 -80.4133 208° Southwest 120 138 9,700 -47 Level Miami Center
Sun 08:00:58 AM 26.1403 -80.3814 56° Northeast 130 150 9,600 -49 Descending Miami Center
Sun 08:01:53 AM 26.1417 -80.4047 274° West 83 96 9,600 -47 Level Miami Center
Sun 08:03:06 AM 26.1231 -80.4017 172° South 156 180 9,500  Descending Miami Center
Sun 08:04:07 AM 26.1442 -80.3956 15° North 78 90 9,600 52 Climbing Miami Center
Sun 08:05:01 AM 26.1372 -80.4161 249° West 80 92 9,600  Level Miami Center
Sun 08:06:02 AM 26.1147 -80.3969 143° Southeast 131 151 9,600 -47 Level Miami Center
Sun 08:07:09 AM 26.1294 -80.3972 359° North 68 78 9,500  Descending Miami Center
Sun 08:07:58 AM 26.1186 -80.4086 223° Southwest 79 91 9,600  Climbing Miami Center
Sun 08:08:59 AM 26.1153 -80.3806 98° East 149 171 9,500 45 Descending Miami Center
Sun 08:10:12 AM 26.1253 -80.4019 298° West 65 75 9,700 47 Climbing Miami Center
Sun 08:11:07 AM 26.1064 -80.3989 172° South 129 148 9,600 -52 Descending Miami Center
Sun 08:12:08 AM 26.1214 -80.3878 34° Northeast 95 109 9,600 49 Level Miami Center
Sun 08:13:09 AM 26.1083 -80.4014 223° Southwest 91 105 9,700  Climbing Miami Center
Sun 08:14:09 AM 26.1047 -80.3781 100° East 152 175 9,600 -50 Descending Miami Center
Sun 08:15:10 AM 26.1233 -80.3925 325° Northwest 75 86 9,600  Level Miami Center
Sun 08:16:05 AM 26.1106 -80.4061 224° Southwest 102 117 9,600  Level Miami Center
Sun 08:17:00 AM 26.0922 -80.3800 128° Southeast 149 171 9,600  Level Miami Center
Sun 08:18:07 AM 26.1278 -80.3742 North 109 125 9,600  Level Miami Center
Sun 08:19:08 AM 26.1378 -80.3953 298° West 79 91 9,600  Level Miami Center
Sun 08:20:03 AM 26.1231 -80.4064 214° Southwest 109 125 9,600 -49 Level Miami Center
Sun 08:21:10 AM 26.0919 -80.3917 157° South 123 142 9,500 -49 Descending Miami Center
Sun 08:22:05 AM 26.1133 -80.3714 40° Northeast 118 136 9,500 52 Level Miami Center
Sun 08:23:06 AM 26.1253 -80.3950 299° West 78 90 9,600 49 Climbing Miami Center
Sun 08:24:07 AM 26.1022 -80.4033 198° South 87 100 9,600 -47 Level Miami Center
Sun 08:25:13 AM 26.0839 -80.3753 126° Southeast 151 174 9,500  Descending Miami Center
Sun 08:26:14 AM 26.1086 -80.3897 332° Northwest 83 96 9,600 52 Climbing Miami Center
Sun 08:27:09 AM 26.0978 -80.4056 233° Southwest 81 93 9,600 -52 Level Miami Center
Sun 08:28:10 AM 26.0986 -80.3803 88° East 131 151 9,500 -49 Descending Miami Center
Sun 08:29:11 AM 26.1106 -80.3967 309° West 69 79 9,500 49 Level Miami Center
Sun 08:30:12 AM 26.0917 -80.4078 208° Southwest 95 109 9,600 50 Climbing Miami Center
Sun 08:31:12 AM 26.1089 -80.3875 47° Northeast 110 127 9,600  Level Miami Center
Sun 08:32:13 AM 26.1125 -80.4083 281° West 75 86 9,600  Level Miami Center
Sun 08:33:14 AM 26.0939 -80.4008 160° South 145 167 9,600  Level Miami Center
Sun 08:34:21 AM 26.1211 -80.3994 North 92 106 9,600  Level Miami Center
Sun 08:35:22 AM 26.1039 -80.4150 219° Southwest 92 106 9,600  Level Miami Center
Sun 08:36:23 AM 26.1086 -80.3897 78° East 136 157 9,600  Level Miami Center
Sun 08:37:23 AM 26.1186 -80.4086 301° West 81 93 9,600  Level Miami Center
Sun 08:38:24 AM 26.1000 -80.4081 178° South 127 146 9,600  Level Miami Center
Sun 08:39:13 AM 26.1233 -80.3947 27° Northeast 119 137 9,600  Level Miami Center
Sun 08:40:20 AM 26.1206 -80.4156 262° West 84 97 9,600  Level Miami Center
Sun 08:41:27 AM 26.1064 -80.3989 133° Southeast 144 166 9,600  Level Miami Center
Sun 08:42:22 AM 26.1258 -80.3786 43° Northeast 111 128 9,600  Level Miami Center
Sun 08:43:23 AM 26.1231 -80.4017 262° West 79 91 9,600  Level Miami Center
Sun 08:44:24 AM 26.0983 -80.3917 160° South 125 144 9,600  Level Miami Center
Sun 08:45:31 AM 26.1172 -80.3808 27° Northeast 87 100 9,600  Level Miami Center
Sun 08:46:32 AM 26.1314 -80.4019 307° West 91 105 9,600 47 Level Miami Center
Sun 08:47:38 AM 26.1081 -80.4175 211° Southwest 97 112 9,700  Climbing Miami Center
Sun 08:48:33 AM 26.0983 -80.3942 115° Southeast 151 174 9,600 -52 Descending Miami Center
Sun 08:49:34 AM 26.1233 -80.3925 North 83 96 9,600  Level Miami Center
Sun 08:50:35 AM 26.1353 -80.4161 299° West 94 108 9,600  Level Miami Center
Sun 08:51:36 AM 26.1161 -80.4247 202° Southwest 100 115 9,600  Level Miami Center
Sun 08:52:37 AM 26.1150 -80.3944 92° East 152 175 9,600  Level Miami Center
Sun 08:53:37 AM 26.1397 -80.4092 332° Northwest 100 115 9,600  Level Miami Center
Sun 08:54:38 AM 26.1308 -80.4297 244° Southwest 84 97 9,600  Level Miami Center
Sun 08:55:45 AM 26.1042 -80.4058 141° Southeast 126 145 9,600  Level Miami Center
Sun 08:56:40 AM 26.1069 -80.3781 84° East 137 158 9,600  Level Miami Center
Sun 08:57:47 AM 26.1358 -80.3975 329° Northwest 100 115 9,600  Level Miami Center
Sun 08:58:48 AM 26.1478 -80.4211 299° West 95 109 9,600 -49 Level Miami Center
Sun 08:59:49 AM 26.1347 -80.4367 227° Southwest 109 125 9,500  Descending Miami Center
Sun 09:00:56 AM 26.1253 -80.4019 107° East 154 177 9,600 47 Climbing Miami Center
Sun 09:01:56 AM 26.1478 -80.4142 334° Northwest 87 100 9,600  Level Miami Center
Sun 09:02:51 AM 26.1392 -80.4322 242° Southwest 92 106 9,600  Level Miami Center
Sun 09:03:52 AM 26.1186 -80.4156 144° Southeast 146 168 9,600  Level Miami Center
Sun 09:04:53 AM 26.1417 -80.4069 19° North 94 108 9,600  Level Miami Center
Sun 09:05:54 AM 26.1475 -80.4325 284° West 83 96 9,600  Level Miami Center
Sun 09:06:55 AM 26.1244 -80.4364 189° South 107 123 9,600 -49 Level Miami Center
Sun 09:07:56 AM 26.1353 -80.4114 64° Northeast 128 147 9,500  Descending Miami Center
Sun 09:08:57 AM 26.1453 -80.4347 296° West 81 93 9,600 47 Climbing Miami Center
Sun 09:10:04 AM 26.1203 -80.4342 179° South 130 150 9,600  Level Miami Center
Sun 09:10:59 AM 26.1375 -80.4136 47° Northeast 126 145 9,600  Level Miami Center
Sun 09:12:06 AM 26.1389 -80.4392 273° West 91 105 9,600  Level Miami Center
Sun 09:13:01 AM 26.1139 -80.4408 183° South 116 133 9,600  Level Miami Center
Sun 09:14:01 AM 26.1331 -80.4206 44° Northeast 117 135 9,600  Level Miami Center
Sun 09:15:02 AM 26.1408 -80.4439 290° West 89 102 9,600  Level Miami Center
Sun 09:15:57 AM 26.1197 -80.4503 195° South 123 142 9,600  Level Miami Center
Sun 09:16:58 AM 26.1144 -80.4153 100° East 153 176 9,600  Level Miami Center
Sun 09:17:59 AM 26.1392 -80.4278 336° Northwest 89 102 9,600  Level Miami Center
Sun 09:19:00 AM 26.1344 -80.4506 257° West 101 116 9,600  Level Miami Center
Sun 09:20:00 AM 26.1228 -80.4133 109° East 138 159 9,600 -47 Level Miami Center
Sun 09:21:07 AM 26.1500 -80.4119 North 83 96 9,500  Descending Miami Center
Sun 09:22:08 AM 26.1578 -80.4397 287° West 85 98 9,600 47 Climbing Miami Center
Sun 09:23:16 AM 26.1386 -80.4508 207° Southwest 118 136 9,600  Level Miami Center
Sun 09:24:16 AM 26.1619 -80.4306 38° Northeast 121 139 9,600 -298 Level Miami Center
Sun 09:25:17 AM 26.1956 -80.4317 358° North 126 145 9,000 -738 Descending Miami Center
Sun 09:26:18 AM 26.2331 -80.4258 North 137 158 8,100 -879 Descending Miami Center
Sun 09:27:13 AM 26.2689 -80.4222 North 139 160 7,300 -828 Descending Miami Center
Sun 09:28:14 AM 26.2886 -80.3811 62° Northeast 150 173 6,500 -836 Descending Miami Center
Sun 09:29:15 AM 26.3022 -80.3400 70° East 142 163 5,600 -938 Descending Miami Center
Sun 09:30:22 AM 26.3197 -80.2964 66° East 137 158 4,500 -902 Descending Miami Center
Sun 09:31:28 AM 26.3147 -80.2500 97° East 140 161 3,600 -843 Descending Miami Center
Sun 09:32:23 AM 26.3050 -80.2103 105° East 139 160 2,800 -776 Descending Miami Center
Sun 09:33:24 AM 26.2872 -80.1750 119° Southeast 131 151 2,100 -689 Descending Miami Center
Sun 09:34:25 AM 26.2628 -80.1464 134° Southeast 129 148 1,400 -709 Descending Miami Center
Sun 09:35:14 AM 26.2381 -80.1272 145° Southeast 124 143 800 -545 Descending Miami Center
Sun 09:36:15 AM 26.2261 -80.1039 120° Southeast 99 114 400 -393 Descending Miami Center
Sun 09:38:00 AM 26.2312 -80.1012 26° Northeast  Level FlightAware Approximate

Login

Don't have an account? Register now (free) for customized features, flight alerts, and more!